sensor_id;sensor_type;location;lat;lon;timestamp;P1;durP1;ratioP1;P2;durP2;ratioP2
41446;SDS011;27185;52.040;4.490;2024-02-28T00:00:40;6.80;;;3.85;;
41446;SDS011;27185;52.040;4.490;2024-02-28T00:03:26;11.07;;;3.70;;
41446;SDS011;27185;52.040;4.490;2024-02-28T00:06:12;6.80;;;4.20;;
41446;SDS011;27185;52.040;4.490;2024-02-28T00:08:58;5.68;;;3.70;;
41446;SDS011;27185;52.040;4.490;2024-02-28T00:11:44;6.28;;;3.13;;
41446;SDS011;27185;52.040;4.490;2024-02-28T00:14:30;5.97;;;3.35;;
41446;SDS011;27185;52.040;4.490;2024-02-28T00:17:16;5.95;;;3.22;;
41446;SDS011;27185;52.040;4.490;2024-02-28T00:20:02;6.63;;;3.53;;
41446;SDS011;27185;52.040;4.490;2024-02-28T00:22:48;5.63;;;3.00;;
41446;SDS011;27185;52.040;4.490;2024-02-28T00:25:34;8.77;;;2.78;;
41446;SDS011;27185;52.040;4.490;2024-02-28T00:28:20;7.00;;;2.92;;
41446;SDS011;27185;52.040;4.490;2024-02-28T00:31:05;7.35;;;2.80;;
41446;SDS011;27185;52.040;4.490;2024-02-28T00:33:51;5.38;;;3.30;;
41446;SDS011;27185;52.040;4.490;2024-02-28T00:36:37;10.85;;;3.47;;
41446;SDS011;27185;52.040;4.490;2024-02-28T00:39:23;5.18;;;2.92;;
41446;SDS011;27185;52.040;4.490;2024-02-28T00:42:09;5.78;;;2.78;;
41446;SDS011;27185;52.040;4.490;2024-02-28T00:44:55;4.78;;;3.25;;
41446;SDS011;27185;52.040;4.490;2024-02-28T00:47:41;6.93;;;3.00;;
41446;SDS011;27185;52.040;4.490;2024-02-28T00:50:26;5.60;;;3.13;;
41446;SDS011;27185;52.040;4.490;2024-02-28T00:53:12;13.07;;;3.92;;
41446;SDS011;27185;52.040;4.490;2024-02-28T00:55:58;10.38;;;4.20;;
41446;SDS011;27185;52.040;4.490;2024-02-28T00:58:44;5.22;;;3.00;;
41446;SDS011;27185;52.040;4.490;2024-02-28T01:01:30;5.18;;;3.47;;
41446;SDS011;27185;52.040;4.490;2024-02-28T01:04:21;7.68;;;3.85;;
41446;SDS011;27185;52.040;4.490;2024-02-28T01:07:07;7.72;;;3.97;;
41446;SDS011;27185;52.040;4.490;2024-02-28T01:09:53;9.02;;;4.05;;
41446;SDS011;27185;52.040;4.490;2024-02-28T01:12:39;6.38;;;3.55;;
41446;SDS011;27185;52.040;4.490;2024-02-28T01:15:25;6.90;;;3.75;;
41446;SDS011;27185;52.040;4.490;2024-02-28T01:18:11;5.47;;;3.72;;
41446;SDS011;27185;52.040;4.490;2024-02-28T01:20:56;5.95;;;4.07;;
41446;SDS011;27185;52.040;4.490;2024-02-28T01:23:42;8.57;;;4.22;;
41446;SDS011;27185;52.040;4.490;2024-02-28T01:26:28;7.60;;;4.38;;
41446;SDS011;27185;52.040;4.490;2024-02-28T01:29:14;9.20;;;4.00;;
41446;SDS011;27185;52.040;4.490;2024-02-28T01:32:00;6.53;;;3.65;;
41446;SDS011;27185;52.040;4.490;2024-02-28T01:34:45;6.97;;;4.40;;
41446;SDS011;27185;52.040;4.490;2024-02-28T01:37:31;5.18;;;4.05;;
41446;SDS011;27185;52.040;4.490;2024-02-28T01:40:17;6.90;;;4.35;;
41446;SDS011;27185;52.040;4.490;2024-02-28T01:43:03;9.43;;;3.55;;
41446;SDS011;27185;52.040;4.490;2024-02-28T01:45:52;9.70;;;3.78;;
41446;SDS011;27185;52.040;4.490;2024-02-28T01:48:38;11.23;;;3.90;;
41446;SDS011;27185;52.040;4.490;2024-02-28T01:51:24;9.30;;;3.95;;
41446;SDS011;27185;52.040;4.490;2024-02-28T01:54:12;11.50;;;4.53;;
41446;SDS011;27185;52.040;4.490;2024-02-28T01:56:58;8.15;;;3.95;;
41446;SDS011;27185;52.040;4.490;2024-02-28T01:59:44;7.05;;;4.20;;
41446;SDS011;27185;52.040;4.490;2024-02-28T02:02:31;8.98;;;4.72;;
41446;SDS011;27185;52.040;4.490;2024-02-28T02:05:18;6.50;;;4.20;;
41446;SDS011;27185;52.040;4.490;2024-02-28T02:08:05;9.60;;;4.80;;
41446;SDS011;27185;52.040;4.490;2024-02-28T02:10:51;8.73;;;4.43;;
41446;SDS011;27185;52.040;4.490;2024-02-28T02:13:47;5.38;;;3.97;;
41446;SDS011;27185;52.040;4.490;2024-02-28T02:16:36;9.15;;;4.85;;
41446;SDS011;27185;52.040;4.490;2024-02-28T02:19:22;11.63;;;5.05;;
41446;SDS011;27185;52.040;4.490;2024-02-28T02:22:08;9.27;;;4.90;;
41446;SDS011;27185;52.040;4.490;2024-02-28T02:24:55;9.38;;;4.45;;
41446;SDS011;27185;52.040;4.490;2024-02-28T02:27:41;6.75;;;4.82;;
41446;SDS011;27185;52.040;4.490;2024-02-28T02:30:27;10.27;;;4.97;;
41446;SDS011;27185;52.040;4.490;2024-02-28T02:33:13;7.80;;;4.85;;
41446;SDS011;27185;52.040;4.490;2024-02-28T02:35:59;9.93;;;4.57;;
41446;SDS011;27185;52.040;4.490;2024-02-28T02:38:45;10.38;;;6.10;;
41446;SDS011;27185;52.040;4.490;2024-02-28T02:41:31;10.43;;;5.55;;
41446;SDS011;27185;52.040;4.490;2024-02-28T02:44:16;9.05;;;5.78;;
41446;SDS011;27185;52.040;4.490;2024-02-28T02:47:02;10.18;;;6.20;;
41446;SDS011;27185;52.040;4.490;2024-02-28T02:49:48;12.48;;;6.40;;
41446;SDS011;27185;52.040;4.490;2024-02-28T02:52:34;13.77;;;7.00;;
41446;SDS011;27185;52.040;4.490;2024-02-28T02:55:19;12.15;;;7.45;;
41446;SDS011;27185;52.040;4.490;2024-02-28T02:58:06;12.73;;;7.13;;
41446;SDS011;27185;52.040;4.490;2024-02-28T03:00:52;10.30;;;6.90;;
41446;SDS011;27185;52.040;4.490;2024-02-28T03:03:37;11.98;;;7.00;;
41446;SDS011;27185;52.040;4.490;2024-02-28T03:06:23;12.82;;;6.93;;
41446;SDS011;27185;52.040;4.490;2024-02-28T03:09:09;11.88;;;7.28;;
41446;SDS011;27185;52.040;4.490;2024-02-28T03:11:55;11.25;;;7.57;;
41446;SDS011;27185;52.040;4.490;2024-02-28T03:14:41;12.75;;;7.25;;
41446;SDS011;27185;52.040;4.490;2024-02-28T03:17:27;11.63;;;7.47;;
41446;SDS011;27185;52.040;4.490;2024-02-28T03:20:13;15.15;;;8.25;;
41446;SDS011;27185;52.040;4.490;2024-02-28T03:22:59;12.80;;;8.43;;
41446;SDS011;27185;52.040;4.490;2024-02-28T03:25:45;17.05;;;7.85;;
41446;SDS011;27185;52.040;4.490;2024-02-28T03:28:34;11.65;;;7.72;;
41446;SDS011;27185;52.040;4.490;2024-02-28T03:31:21;14.52;;;9.02;;
41446;SDS011;27185;52.040;4.490;2024-02-28T03:34:07;11.55;;;7.95;;
41446;SDS011;27185;52.040;4.490;2024-02-28T03:36:53;12.20;;;8.95;;
41446;SDS011;27185;52.040;4.490;2024-02-28T03:39:39;16.27;;;8.10;;
41446;SDS011;27185;52.040;4.490;2024-02-28T03:42:25;12.60;;;8.00;;
41446;SDS011;27185;52.040;4.490;2024-02-28T03:45:11;12.00;;;8.02;;
41446;SDS011;27185;52.040;4.490;2024-02-28T03:47:57;10.20;;;7.50;;
41446;SDS011;27185;52.040;4.490;2024-02-28T03:50:43;13.80;;;8.43;;
41446;SDS011;27185;52.040;4.490;2024-02-28T03:53:29;18.60;;;8.73;;
41446;SDS011;27185;52.040;4.490;2024-02-28T03:56:21;14.77;;;8.82;;
41446;SDS011;27185;52.040;4.490;2024-02-28T03:59:11;11.35;;;8.90;;
41446;SDS011;27185;52.040;4.490;2024-02-28T04:01:57;11.85;;;8.98;;
41446;SDS011;27185;52.040;4.490;2024-02-28T04:04:42;19.02;;;9.20;;
41446;SDS011;27185;52.040;4.490;2024-02-28T04:07:28;13.68;;;8.15;;
41446;SDS011;27185;52.040;4.490;2024-02-28T04:10:14;16.83;;;8.93;;
41446;SDS011;27185;52.040;4.490;2024-02-28T04:13:00;12.43;;;8.60;;
41446;SDS011;27185;52.040;4.490;2024-02-28T04:15:46;13.13;;;8.65;;
41446;SDS011;27185;52.040;4.490;2024-02-28T04:18:32;11.40;;;8.00;;
41446;SDS011;27185;52.040;4.490;2024-02-28T04:21:20;14.60;;;9.10;;
41446;SDS011;27185;52.040;4.490;2024-02-28T04:24:06;17.67;;;9.60;;
41446;SDS011;27185;52.040;4.490;2024-02-28T04:26:53;18.45;;;9.82;;
41446;SDS011;27185;52.040;4.490;2024-02-28T04:29:38;11.82;;;9.10;;
41446;SDS011;27185;52.040;4.490;2024-02-28T04:32:24;15.30;;;9.75;;
41446;SDS011;27185;52.040;4.490;2024-02-28T04:35:10;13.18;;;9.15;;
41446;SDS011;27185;52.040;4.490;2024-02-28T04:37:59;15.27;;;9.45;;
41446;SDS011;27185;52.040;4.490;2024-02-28T04:40:45;12.95;;;9.38;;
41446;SDS011;27185;52.040;4.490;2024-02-28T04:43:30;15.32;;;10.70;;
41446;SDS011;27185;52.040;4.490;2024-02-28T04:46:16;15.73;;;9.82;;
41446;SDS011;27185;52.040;4.490;2024-02-28T04:49:03;15.45;;;11.02;;
41446;SDS011;27185;52.040;4.490;2024-02-28T04:51:53;19.67;;;11.27;;
41446;SDS011;27185;52.040;4.490;2024-02-28T04:54:42;22.00;;;12.13;;
41446;SDS011;27185;52.040;4.490;2024-02-28T04:57:28;18.60;;;12.35;;
41446;SDS011;27185;52.040;4.490;2024-02-28T05:00:14;17.67;;;12.30;;
41446;SDS011;27185;52.040;4.490;2024-02-28T05:03:00;20.55;;;11.98;;
41446;SDS011;27185;52.040;4.490;2024-02-28T05:05:46;19.95;;;12.60;;
41446;SDS011;27185;52.040;4.490;2024-02-28T05:08:32;15.93;;;11.52;;
41446;SDS011;27185;52.040;4.490;2024-02-28T05:11:18;16.85;;;11.07;;
41446;SDS011;27185;52.040;4.490;2024-02-28T05:14:04;16.95;;;12.38;;
41446;SDS011;27185;52.040;4.490;2024-02-28T05:16:50;18.63;;;10.85;;
41446;SDS011;27185;52.040;4.490;2024-02-28T05:19:39;17.52;;;10.73;;
41446;SDS011;27185;52.040;4.490;2024-02-28T05:22:24;14.88;;;10.10;;
41446;SDS011;27185;52.040;4.490;2024-02-28T05:25:10;13.18;;;10.25;;
41446;SDS011;27185;52.040;4.490;2024-02-28T05:27:56;15.23;;;11.57;;
41446;SDS011;27185;52.040;4.490;2024-02-28T05:30:43;18.05;;;11.55;;
41446;SDS011;27185;52.040;4.490;2024-02-28T05:33:29;14.80;;;11.25;;
41446;SDS011;27185;52.040;4.490;2024-02-28T05:36:15;17.48;;;12.50;;
41446;SDS011;27185;52.040;4.490;2024-02-28T05:39:01;16.25;;;10.45;;
41446;SDS011;27185;52.040;4.490;2024-02-28T05:41:50;19.48;;;12.13;;
41446;SDS011;27185;52.040;4.490;2024-02-28T05:44:36;21.45;;;11.13;;
41446;SDS011;27185;52.040;4.490;2024-02-28T05:47:25;14.90;;;10.73;;
41446;SDS011;27185;52.040;4.490;2024-02-28T05:50:10;19.98;;;11.77;;
41446;SDS011;27185;52.040;4.490;2024-02-28T05:52:58;13.73;;;10.83;;
41446;SDS011;27185;52.040;4.490;2024-02-28T05:55:44;14.75;;;11.07;;
41446;SDS011;27185;52.040;4.490;2024-02-28T05:58:30;14.70;;;10.60;;
41446;SDS011;27185;52.040;4.490;2024-02-28T06:01:16;21.42;;;14.13;;
41446;SDS011;27185;52.040;4.490;2024-02-28T06:04:02;25.65;;;15.07;;
41446;SDS011;27185;52.040;4.490;2024-02-28T06:06:48;23.02;;;13.95;;
41446;SDS011;27185;52.040;4.490;2024-02-28T06:09:35;24.33;;;16.25;;
41446;SDS011;27185;52.040;4.490;2024-02-28T06:12:21;23.27;;;15.18;;
41446;SDS011;27185;52.040;4.490;2024-02-28T06:15:07;20.05;;;13.82;;
41446;SDS011;27185;52.040;4.490;2024-02-28T06:17:56;15.82;;;12.23;;
41446;SDS011;27185;52.040;4.490;2024-02-28T06:20:45;20.00;;;12.82;;
41446;SDS011;27185;52.040;4.490;2024-02-28T06:23:31;16.65;;;12.32;;
41446;SDS011;27185;52.040;4.490;2024-02-28T06:26:17;21.30;;;12.98;;
41446;SDS011;27185;52.040;4.490;2024-02-28T06:29:03;18.98;;;13.10;;
41446;SDS011;27185;52.040;4.490;2024-02-28T06:31:51;15.63;;;12.55;;
41446;SDS011;27185;52.040;4.490;2024-02-28T06:34:37;15.27;;;12.23;;
41446;SDS011;27185;52.040;4.490;2024-02-28T06:37:23;22.50;;;14.80;;
41446;SDS011;27185;52.040;4.490;2024-02-28T06:40:13;21.13;;;12.18;;
41446;SDS011;27185;52.040;4.490;2024-02-28T06:42:59;17.95;;;12.15;;
41446;SDS011;27185;52.040;4.490;2024-02-28T06:45:46;16.98;;;12.95;;
41446;SDS011;27185;52.040;4.490;2024-02-28T06:48:35;19.60;;;13.00;;
41446;SDS011;27185;52.040;4.490;2024-02-28T06:51:21;17.98;;;12.60;;
41446;SDS011;27185;52.040;4.490;2024-02-28T06:54:07;15.63;;;12.63;;
41446;SDS011;27185;52.040;4.490;2024-02-28T06:57:03;17.92;;;13.13;;
41446;SDS011;27185;52.040;4.490;2024-02-28T06:59:49;21.67;;;13.95;;
41446;SDS011;27185;52.040;4.490;2024-02-28T07:02:35;20.13;;;14.65;;
41446;SDS011;27185;52.040;4.490;2024-02-28T07:05:21;19.20;;;13.82;;
41446;SDS011;27185;52.040;4.490;2024-02-28T07:08:07;19.33;;;14.65;;
41446;SDS011;27185;52.040;4.490;2024-02-28T07:10:57;20.30;;;14.25;;
41446;SDS011;27185;52.040;4.490;2024-02-28T07:13:43;17.75;;;13.77;;
41446;SDS011;27185;52.040;4.490;2024-02-28T07:16:29;18.23;;;13.25;;
41446;SDS011;27185;52.040;4.490;2024-02-28T07:19:17;23.23;;;15.45;;
41446;SDS011;27185;52.040;4.490;2024-02-28T07:22:03;25.20;;;15.13;;
41446;SDS011;27185;52.040;4.490;2024-02-28T07:24:50;20.23;;;14.90;;
41446;SDS011;27185;52.040;4.490;2024-02-28T07:27:36;23.67;;;14.95;;
41446;SDS011;27185;52.040;4.490;2024-02-28T07:30:22;19.23;;;14.27;;
41446;SDS011;27185;52.040;4.490;2024-02-28T07:33:08;20.55;;;15.70;;
41446;SDS011;27185;52.040;4.490;2024-02-28T07:35:54;22.75;;;14.45;;
41446;SDS011;27185;52.040;4.490;2024-02-28T07:38:45;20.42;;;14.88;;
41446;SDS011;27185;52.040;4.490;2024-02-28T07:41:32;21.73;;;15.15;;
41446;SDS011;27185;52.040;4.490;2024-02-28T07:44:18;25.23;;;14.70;;
41446;SDS011;27185;52.040;4.490;2024-02-28T07:47:05;24.20;;;16.92;;
41446;SDS011;27185;52.040;4.490;2024-02-28T07:49:51;26.33;;;17.23;;
41446;SDS011;27185;52.040;4.490;2024-02-28T07:52:38;23.15;;;15.73;;
41446;SDS011;27185;52.040;4.490;2024-02-28T07:55:24;22.00;;;13.45;;
41446;SDS011;27185;52.040;4.490;2024-02-28T07:58:14;28.15;;;17.40;;
41446;SDS011;27185;52.040;4.490;2024-02-28T08:01:05;25.55;;;17.10;;
41446;SDS011;27185;52.040;4.490;2024-02-28T08:03:51;24.17;;;14.48;;
41446;SDS011;27185;52.040;4.490;2024-02-28T08:06:36;20.05;;;14.68;;
41446;SDS011;27185;52.040;4.490;2024-02-28T08:09:22;23.17;;;14.90;;
41446;SDS011;27185;52.040;4.490;2024-02-28T08:12:08;24.80;;;16.17;;
41446;SDS011;27185;52.040;4.490;2024-02-28T08:14:54;24.02;;;15.68;;
41446;SDS011;27185;52.040;4.490;2024-02-28T08:17:40;26.83;;;16.77;;
41446;SDS011;27185;52.040;4.490;2024-02-28T08:20:29;24.60;;;17.58;;
41446;SDS011;27185;52.040;4.490;2024-02-28T08:23:17;29.40;;;16.88;;
41446;SDS011;27185;52.040;4.490;2024-02-28T08:26:04;19.55;;;14.93;;
41446;SDS011;27185;52.040;4.490;2024-02-28T08:28:53;22.25;;;15.25;;
41446;SDS011;27185;52.040;4.490;2024-02-28T08:31:42;28.23;;;16.83;;
41446;SDS011;27185;52.040;4.490;2024-02-28T08:34:29;24.35;;;16.83;;
41446;SDS011;27185;52.040;4.490;2024-02-28T08:37:15;20.92;;;16.08;;
41446;SDS011;27185;52.040;4.490;2024-02-28T08:40:02;24.05;;;17.17;;
41446;SDS011;27185;52.040;4.490;2024-02-28T08:43:08;30.42;;;17.40;;
41446;SDS011;27185;52.040;4.490;2024-02-28T08:45:57;25.13;;;16.77;;
41446;SDS011;27185;52.040;4.490;2024-02-28T08:48:43;21.63;;;15.05;;
41446;SDS011;27185;52.040;4.490;2024-02-28T08:51:29;24.83;;;15.48;;
41446;SDS011;27185;52.040;4.490;2024-02-28T08:54:14;29.83;;;18.20;;
41446;SDS011;27185;52.040;4.490;2024-02-28T08:57:00;27.60;;;17.95;;
41446;SDS011;27185;52.040;4.490;2024-02-28T08:59:46;27.50;;;18.42;;
41446;SDS011;27185;52.040;4.490;2024-02-28T09:02:34;25.30;;;17.88;;
41446;SDS011;27185;52.040;4.490;2024-02-28T09:05:22;33.38;;;20.30;;
41446;SDS011;27185;52.040;4.490;2024-02-28T09:08:08;29.45;;;17.48;;
41446;SDS011;27185;52.040;4.490;2024-02-28T09:10:54;24.88;;;18.95;;
41446;SDS011;27185;52.040;4.490;2024-02-28T09:13:41;34.95;;;21.05;;
41446;SDS011;27185;52.040;4.490;2024-02-28T09:16:26;30.20;;;19.35;;
41446;SDS011;27185;52.040;4.490;2024-02-28T09:19:12;27.23;;;18.70;;
41446;SDS011;27185;52.040;4.490;2024-02-28T09:21:58;25.58;;;17.95;;
41446;SDS011;27185;52.040;4.490;2024-02-28T09:24:44;23.92;;;18.13;;
41446;SDS011;27185;52.040;4.490;2024-02-28T09:27:30;31.17;;;20.30;;
41446;SDS011;27185;52.040;4.490;2024-02-28T09:30:16;33.38;;;19.85;;
41446;SDS011;27185;52.040;4.490;2024-02-28T09:33:03;21.80;;;18.07;;
41446;SDS011;27185;52.040;4.490;2024-02-28T09:35:54;25.55;;;17.50;;
41446;SDS011;27185;52.040;4.490;2024-02-28T09:38:40;22.25;;;17.42;;
41446;SDS011;27185;52.040;4.490;2024-02-28T09:41:27;25.23;;;17.17;;
41446;SDS011;27185;52.040;4.490;2024-02-28T09:44:13;24.80;;;18.50;;
41446;SDS011;27185;52.040;4.490;2024-02-28T09:47:00;31.05;;;19.70;;
41446;SDS011;27185;52.040;4.490;2024-02-28T09:49:47;26.73;;;20.70;;
41446;SDS011;27185;52.040;4.490;2024-02-28T09:52:36;30.05;;;20.42;;
41446;SDS011;27185;52.040;4.490;2024-02-28T09:55:23;33.03;;;21.05;;
41446;SDS011;27185;52.040;4.490;2024-02-28T09:58:09;27.33;;;19.48;;
41446;SDS011;27185;52.040;4.490;2024-02-28T10:00:56;26.60;;;19.17;;
41446;SDS011;27185;52.040;4.490;2024-02-28T10:03:44;27.67;;;18.83;;
41446;SDS011;27185;52.040;4.490;2024-02-28T10:06:32;27.42;;;19.88;;
41446;SDS011;27185;52.040;4.490;2024-02-28T10:09:18;26.45;;;19.02;;
41446;SDS011;27185;52.040;4.490;2024-02-28T10:12:04;30.83;;;18.90;;
41446;SDS011;27185;52.040;4.490;2024-02-28T10:14:51;28.25;;;19.15;;
41446;SDS011;27185;52.040;4.490;2024-02-28T10:17:37;28.13;;;19.17;;
41446;SDS011;27185;52.040;4.490;2024-02-28T10:20:23;36.92;;;21.55;;
41446;SDS011;27185;52.040;4.490;2024-02-28T10:23:09;30.92;;;20.75;;
41446;SDS011;27185;52.040;4.490;2024-02-28T10:25:55;25.90;;;18.70;;
41446;SDS011;27185;52.040;4.490;2024-02-28T10:28:40;31.85;;;21.20;;
41446;SDS011;27185;52.040;4.490;2024-02-28T10:31:28;28.73;;;18.98;;
41446;SDS011;27185;52.040;4.490;2024-02-28T10:34:20;26.17;;;17.63;;
41446;SDS011;27185;52.040;4.490;2024-02-28T10:37:06;24.90;;;17.33;;
41446;SDS011;27185;52.040;4.490;2024-02-28T10:39:56;24.92;;;17.75;;
41446;SDS011;27185;52.040;4.490;2024-02-28T10:42:46;33.78;;;21.10;;
41446;SDS011;27185;52.040;4.490;2024-02-28T10:45:33;26.85;;;19.15;;
41446;SDS011;27185;52.040;4.490;2024-02-28T10:48:42;26.45;;;18.55;;
41446;SDS011;27185;52.040;4.490;2024-02-28T10:51:28;29.27;;;19.00;;
41446;SDS011;27185;52.040;4.490;2024-02-28T10:54:17;25.75;;;19.13;;
41446;SDS011;27185;52.040;4.490;2024-02-28T10:57:06;29.63;;;19.35;;
41446;SDS011;27185;52.040;4.490;2024-02-28T10:59:54;25.90;;;19.20;;
41446;SDS011;27185;52.040;4.490;2024-02-28T11:02:41;33.92;;;20.25;;
41446;SDS011;27185;52.040;4.490;2024-02-28T11:05:35;25.08;;;18.00;;
41446;SDS011;27185;52.040;4.490;2024-02-28T11:08:23;24.38;;;18.02;;
41446;SDS011;27185;52.040;4.490;2024-02-28T11:11:13;21.13;;;15.55;;
41446;SDS011;27185;52.040;4.490;2024-02-28T11:14:01;20.67;;;15.95;;
41446;SDS011;27185;52.040;4.490;2024-02-28T11:16:47;23.77;;;15.55;;
41446;SDS011;27185;52.040;4.490;2024-02-28T11:19:41;24.15;;;17.13;;
41446;SDS011;27185;52.040;4.490;2024-02-28T11:22:30;21.35;;;16.00;;
41446;SDS011;27185;52.040;4.490;2024-02-28T11:25:18;21.35;;;15.88;;
41446;SDS011;27185;52.040;4.490;2024-02-28T11:28:04;24.25;;;16.52;;
41446;SDS011;27185;52.040;4.490;2024-02-28T11:30:51;24.70;;;14.48;;
41446;SDS011;27185;52.040;4.490;2024-02-28T11:33:39;22.83;;;14.80;;
41446;SDS011;27185;52.040;4.490;2024-02-28T11:36:24;29.70;;;14.00;;
41446;SDS011;27185;52.040;4.490;2024-02-28T11:39:13;18.90;;;12.90;;
41446;SDS011;27185;52.040;4.490;2024-02-28T11:42:10;21.27;;;13.00;;
41446;SDS011;27185;52.040;4.490;2024-02-28T11:45:02;15.82;;;12.07;;
41446;SDS011;27185;52.040;4.490;2024-02-28T11:47:50;18.92;;;10.52;;
41446;SDS011;27185;52.040;4.490;2024-02-28T11:50:37;16.10;;;10.43;;
41446;SDS011;27185;52.040;4.490;2024-02-28T11:53:24;15.80;;;10.88;;
41446;SDS011;27185;52.040;4.490;2024-02-28T11:56:11;18.38;;;11.23;;
41446;SDS011;27185;52.040;4.490;2024-02-28T11:59:02;15.50;;;10.77;;
41446;SDS011;27185;52.040;4.490;2024-02-28T12:01:49;18.40;;;11.45;;
41446;SDS011;27185;52.040;4.490;2024-02-28T12:04:36;18.00;;;13.27;;
41446;SDS011;27185;52.040;4.490;2024-02-28T12:07:22;19.75;;;13.10;;
41446;SDS011;27185;52.040;4.490;2024-02-28T12:10:08;27.38;;;17.98;;
41446;SDS011;27185;52.040;4.490;2024-02-28T12:12:58;34.10;;;21.05;;
41446;SDS011;27185;52.040;4.490;2024-02-28T12:15:45;37.28;;;24.15;;
41446;SDS011;27185;52.040;4.490;2024-02-28T12:18:32;38.43;;;27.10;;
41446;SDS011;27185;52.040;4.490;2024-02-28T12:21:18;32.03;;;23.73;;
41446;SDS011;27185;52.040;4.490;2024-02-28T12:24:06;43.63;;;28.83;;
41446;SDS011;27185;52.040;4.490;2024-02-28T12:26:54;42.63;;;28.00;;
41446;SDS011;27185;52.040;4.490;2024-02-28T12:29:39;44.40;;;29.05;;
41446;SDS011;27185;52.040;4.490;2024-02-28T12:32:25;40.10;;;25.58;;
41446;SDS011;27185;52.040;4.490;2024-02-28T12:35:11;42.47;;;27.30;;
41446;SDS011;27185;52.040;4.490;2024-02-28T12:37:57;42.50;;;27.77;;
41446;SDS011;27185;52.040;4.490;2024-02-28T12:40:43;42.40;;;27.58;;
41446;SDS011;27185;52.040;4.490;2024-02-28T12:43:29;41.22;;;27.50;;
41446;SDS011;27185;52.040;4.490;2024-02-28T12:46:15;43.35;;;27.35;;
41446;SDS011;27185;52.040;4.490;2024-02-28T12:49:01;41.90;;;27.27;;
41446;SDS011;27185;52.040;4.490;2024-02-28T12:51:47;43.53;;;26.58;;
41446;SDS011;27185;52.040;4.490;2024-02-28T12:54:34;44.58;;;27.98;;
41446;SDS011;27185;52.040;4.490;2024-02-28T12:57:19;40.20;;;26.67;;
41446;SDS011;27185;52.040;4.490;2024-02-28T13:00:05;38.90;;;25.50;;
41446;SDS011;27185;52.040;4.490;2024-02-28T13:02:51;42.17;;;26.73;;
41446;SDS011;27185;52.040;4.490;2024-02-28T13:05:37;44.33;;;26.92;;
41446;SDS011;27185;52.040;4.490;2024-02-28T13:08:23;41.97;;;25.70;;
41446;SDS011;27185;52.040;4.490;2024-02-28T13:11:08;52.05;;;31.48;;
41446;SDS011;27185;52.040;4.490;2024-02-28T13:13:54;41.78;;;27.63;;
41446;SDS011;27185;52.040;4.490;2024-02-28T13:16:39;43.58;;;27.70;;
41446;SDS011;27185;52.040;4.490;2024-02-28T13:19:25;43.58;;;27.45;;
41446;SDS011;27185;52.040;4.490;2024-02-28T13:22:11;43.60;;;27.90;;
41446;SDS011;27185;52.040;4.490;2024-02-28T13:24:57;38.15;;;25.05;;
41446;SDS011;27185;52.040;4.490;2024-02-28T13:27:42;35.42;;;24.00;;
41446;SDS011;27185;52.040;4.490;2024-02-28T13:30:28;40.08;;;24.13;;
41446;SDS011;27185;52.040;4.490;2024-02-28T13:33:14;31.20;;;21.63;;
41446;SDS011;27185;52.040;4.490;2024-02-28T13:35:59;32.50;;;22.67;;
41446;SDS011;27185;52.040;4.490;2024-02-28T13:38:45;39.17;;;24.45;;
41446;SDS011;27185;52.040;4.490;2024-02-28T13:41:31;32.58;;;22.52;;
41446;SDS011;27185;52.040;4.490;2024-02-28T13:44:17;29.05;;;21.98;;
41446;SDS011;27185;52.040;4.490;2024-02-28T13:47:04;31.92;;;21.80;;
41446;SDS011;27185;52.040;4.490;2024-02-28T13:49:50;26.98;;;19.20;;
41446;SDS011;27185;52.040;4.490;2024-02-28T13:52:36;27.30;;;19.98;;
41446;SDS011;27185;52.040;4.490;2024-02-28T13:55:21;28.65;;;20.48;;
41446;SDS011;27185;52.040;4.490;2024-02-28T13:58:08;32.83;;;21.50;;
41446;SDS011;27185;52.040;4.490;2024-02-28T14:00:55;34.03;;;23.95;;
41446;SDS011;27185;52.040;4.490;2024-02-28T14:03:41;34.25;;;25.00;;
41446;SDS011;27185;52.040;4.490;2024-02-28T14:06:27;41.25;;;26.98;;
41446;SDS011;27185;52.040;4.490;2024-02-28T14:09:13;37.47;;;25.95;;
41446;SDS011;27185;52.040;4.490;2024-02-28T14:11:59;34.10;;;25.63;;
41446;SDS011;27185;52.040;4.490;2024-02-28T14:14:45;44.15;;;28.23;;
41446;SDS011;27185;52.040;4.490;2024-02-28T14:17:31;41.30;;;27.45;;
41446;SDS011;27185;52.040;4.490;2024-02-28T14:20:16;37.92;;;27.25;;
41446;SDS011;27185;52.040;4.490;2024-02-28T14:23:03;37.40;;;26.50;;
41446;SDS011;27185;52.040;4.490;2024-02-28T14:25:49;34.95;;;25.23;;
41446;SDS011;27185;52.040;4.490;2024-02-28T14:28:35;30.45;;;22.58;;
41446;SDS011;27185;52.040;4.490;2024-02-28T14:31:22;36.47;;;23.67;;
41446;SDS011;27185;52.040;4.490;2024-02-28T14:34:08;33.65;;;24.33;;
41446;SDS011;27185;52.040;4.490;2024-02-28T14:36:54;33.00;;;21.77;;
41446;SDS011;27185;52.040;4.490;2024-02-28T14:39:40;29.67;;;21.05;;
41446;SDS011;27185;52.040;4.490;2024-02-28T14:42:26;29.98;;;20.33;;
41446;SDS011;27185;52.040;4.490;2024-02-28T14:45:12;25.45;;;18.20;;
41446;SDS011;27185;52.040;4.490;2024-02-28T14:48:02;27.92;;;20.20;;
41446;SDS011;27185;52.040;4.490;2024-02-28T14:50:48;22.92;;;16.85;;
41446;SDS011;27185;52.040;4.490;2024-02-28T14:53:34;24.08;;;18.23;;
41446;SDS011;27185;52.040;4.490;2024-02-28T14:56:19;24.50;;;17.88;;
41446;SDS011;27185;52.040;4.490;2024-02-28T14:59:05;22.40;;;17.35;;
41446;SDS011;27185;52.040;4.490;2024-02-28T15:01:50;22.13;;;16.52;;
41446;SDS011;27185;52.040;4.490;2024-02-28T15:04:36;23.48;;;18.10;;
41446;SDS011;27185;52.040;4.490;2024-02-28T15:07:22;24.77;;;17.98;;
41446;SDS011;27185;52.040;4.490;2024-02-28T15:10:08;25.38;;;17.55;;
41446;SDS011;27185;52.040;4.490;2024-02-28T15:12:54;22.08;;;17.20;;
41446;SDS011;27185;52.040;4.490;2024-02-28T15:15:40;21.80;;;16.77;;
41446;SDS011;27185;52.040;4.490;2024-02-28T15:18:25;22.30;;;16.67;;
41446;SDS011;27185;52.040;4.490;2024-02-28T15:21:11;23.33;;;16.60;;
41446;SDS011;27185;52.040;4.490;2024-02-28T15:23:57;24.15;;;16.92;;
41446;SDS011;27185;52.040;4.490;2024-02-28T15:26:43;18.85;;;14.35;;
41446;SDS011;27185;52.040;4.490;2024-02-28T15:29:28;22.13;;;16.25;;
41446;SDS011;27185;52.040;4.490;2024-02-28T15:32:14;21.58;;;17.27;;
41446;SDS011;27185;52.040;4.490;2024-02-28T15:35:00;21.52;;;16.42;;
41446;SDS011;27185;52.040;4.490;2024-02-28T15:37:46;22.70;;;18.52;;
41446;SDS011;27185;52.040;4.490;2024-02-28T15:40:31;23.02;;;18.45;;
41446;SDS011;27185;52.040;4.490;2024-02-28T15:43:17;25.52;;;18.85;;
41446;SDS011;27185;52.040;4.490;2024-02-28T15:46:03;24.05;;;19.60;;
41446;SDS011;27185;52.040;4.490;2024-02-28T15:48:49;24.80;;;20.02;;
41446;SDS011;27185;52.040;4.490;2024-02-28T15:51:34;24.73;;;19.15;;
41446;SDS011;27185;52.040;4.490;2024-02-28T15:54:20;22.00;;;16.90;;
41446;SDS011;27185;52.040;4.490;2024-02-28T15:57:06;18.67;;;16.05;;
41446;SDS011;27185;52.040;4.490;2024-02-28T15:59:51;22.65;;;16.73;;
41446;SDS011;27185;52.040;4.490;2024-02-28T16:02:37;19.38;;;15.60;;
41446;SDS011;27185;52.040;4.490;2024-02-28T16:05:23;21.48;;;16.70;;
41446;SDS011;27185;52.040;4.490;2024-02-28T16:08:09;19.08;;;14.20;;
41446;SDS011;27185;52.040;4.490;2024-02-28T16:10:55;20.73;;;14.68;;
41446;SDS011;27185;52.040;4.490;2024-02-28T16:13:41;17.08;;;13.63;;
41446;SDS011;27185;52.040;4.490;2024-02-28T16:16:28;22.17;;;14.32;;
41446;SDS011;27185;52.040;4.490;2024-02-28T16:19:14;16.73;;;13.52;;